Time;durP1;ratioP1;P1;durP2;ratioP2;P2;SDS_P1;SDS_P2;PMS_P1;PMS_P2;Temp;Humidity;BMP_temperature;BMP_pressure;BME280_temperature;BME280_humidity;BME280_pressure;Samples;Min_cycle;Max_cycle;Signal;HPM_P1;HPM_P2
2023/09/26 00:00:45;;;;;;;3.78;2.42;;;;;;;;;;5076160;28;20247;-74
2023/09/26 00:03:13;;;;;;;9.38;4.63;;;;;;;;;;5075793;28;20209;-74
2023/09/26 00:05:48;;;;;;;3.60;2.67;;;;;;;;;;5075968;28;20190;-74
2023/09/26 00:08:16;;;;;;;3.75;3.17;;;;;;;;;;5035992;28;20201;-74
2023/09/26 00:10:45;;;;;;;6.35;2.63;;;;;;;;;;5035635;28;20681;-74
2023/09/26 00:13:14;;;;;;;3.97;2.50;;;;;;;;;;5035668;28;20191;-74
2023/09/26 00:15:41;;;;;;;4.30;2.85;;;;;;;;;;5035530;28;20641;-74
2023/09/26 00:18:08;;;;;;;6.45;2.85;;;;;;;;;;5035732;28;20215;-74
2023/09/26 00:20:39;;;;;;;3.30;2.40;;;;;;;;;;5035672;28;20665;-74
2023/09/26 00:23:08;;;;;;;3.72;2.33;;;;;;;;;;5055697;28;20293;-74
2023/09/26 00:25:37;;;;;;;3.15;2.40;;;;;;;;;;5055702;28;20602;-74
2023/09/26 00:28:05;;;;;;;4.28;2.78;;;;;;;;;;5055530;28;20193;-74
2023/09/26 00:30:38;;;;;;;4.15;2.75;;;;;;;;;;5055211;28;20221;-74
2023/09/26 00:33:05;;;;;;;5.22;2.60;;;;;;;;;;5055241;28;20215;-74
2023/09/26 00:35:33;;;;;;;4.90;2.38;;;;;;;;;;5054827;28;20201;-74
2023/09/26 00:38:00;;;;;;;5.75;2.35;;;;;;;;;;5055424;28;20198;-74
2023/09/26 00:40:33;;;;;;;3.92;2.28;;;;;;;;;;5055430;28;20614;-74
2023/09/26 00:43:00;;;;;;;3.78;2.60;;;;;;;;;;5055753;28;20278;-74
2023/09/26 00:45:28;;;;;;;4.40;2.20;;;;;;;;;;5055291;28;20595;-74
2023/09/26 00:47:55;;;;;;;3.70;2.55;;;;;;;;;;5054856;28;20239;-74
2023/09/26 00:50:23;;;;;;;3.80;2.40;;;;;;;;;;5054719;28;20291;-74
2023/09/26 00:52:53;;;;;;;4.88;2.75;;;;;;;;;;5055131;28;20187;-74
2023/09/26 00:55:22;;;;;;;3.30;2.25;;;;;;;;;;5054829;28;20191;-74
2023/09/26 00:57:51;;;;;;;3.90;2.35;;;;;;;;;;5054683;28;20643;-74
2023/09/26 01:00:19;;;;;;;3.88;2.10;;;;;;;;;;5054769;28;20207;-74
2023/09/26 01:02:46;;;;;;;4.10;2.20;;;;;;;;;;5054748;28;20553;-74
2023/09/26 01:05:14;;;;;;;3.03;2.15;;;;;;;;;;5054378;28;20655;-74
2023/09/26 01:07:41;;;;;;;3.60;2.50;;;;;;;;;;5054523;28;20232;-74
2023/09/26 01:10:10;;;;;;;5.15;2.90;;;;;;;;;;5054907;28;20206;-74
2023/09/26 01:12:38;;;;;;;3.00;1.80;;;;;;;;;;5055643;28;20198;-74
2023/09/26 01:15:08;;;;;;;3.25;1.88;;;;;;;;;;5054497;28;20605;-74
2023/09/26 01:17:35;;;;;;;3.05;1.95;;;;;;;;;;5054377;28;20195;-74
2023/09/26 01:20:08;;;;;;;3.40;2.00;;;;;;;;;;5053883;28;20223;-74
2023/09/26 01:22:36;;;;;;;4.03;2.50;;;;;;;;;;5054749;28;20175;-74
2023/09/26 01:25:05;;;;;;;3.03;2.13;;;;;;;;;;5054523;28;20266;-74
2023/09/26 01:27:32;;;;;;;3.72;2.22;;;;;;;;;;5054330;28;20194;-74
2023/09/26 01:30:00;;;;;;;4.05;2.53;;;;;;;;;;5054342;28;20193;-74
2023/09/26 01:32:27;;;;;;;6.13;2.05;;;;;;;;;;5053958;28;20600;-74
2023/09/26 01:34:55;;;;;;;3.53;2.65;;;;;;;;;;5054237;28;20600;-74
2023/09/26 01:37:22;;;;;;;3.38;2.03;;;;;;;;;;5054374;28;20191;-74
2023/09/26 01:39:49;;;;;;;4.45;2.42;;;;;;;;;;5054024;28;20252;-73
2023/09/26 01:42:18;;;;;;;3.10;2.20;;;;;;;;;;5053466;28;20217;-74
2023/09/26 01:44:45;;;;;;;3.15;1.98;;;;;;;;;;5054198;28;20201;-74
2023/09/26 01:47:16;;;;;;;3.65;2.40;;;;;;;;;;5053612;28;20191;-74
2023/09/26 01:49:43;;;;;;;2.80;1.90;;;;;;;;;;5053667;28;20239;-74
2023/09/26 01:52:11;;;;;;;12.05;2.00;;;;;;;;;;5054025;28;20279;-74
2023/09/26 01:54:40;;;;;;;4.75;1.90;;;;;;;;;;5054018;28;20525;-74
2023/09/26 01:57:07;;;;;;;4.63;2.20;;;;;;;;;;5053635;28;20200;-74
2023/09/26 01:59:36;;;;;;;5.18;2.28;;;;;;;;;;5053632;28;20193;-74
2023/09/26 02:02:04;;;;;;;3.35;2.20;;;;;;;;;;5072981;28;20190;-74
2023/09/26 02:04:31;;;;;;;3.10;1.83;;;;;;;;;;5073565;28;20596;-74
2023/09/26 02:06:58;;;;;;;3.97;2.10;;;;;;;;;;5073790;28;20248;-74
2023/09/26 02:09:25;;;;;;;3.47;1.92;;;;;;;;;;5073971;28;20592;-73
2023/09/26 02:11:53;;;;;;;5.18;2.13;;;;;;;;;;5073442;28;20223;-74
2023/09/26 02:14:22;;;;;;;3.75;2.20;;;;;;;;;;5073823;28;20274;-74
2023/09/26 02:16:51;;;;;;;4.05;2.50;;;;;;;;;;5073612;28;20192;-74
2023/09/26 02:19:18;;;;;;;2.80;1.60;;;;;;;;;;5073339;28;20222;-74
2023/09/26 02:21:46;;;;;;;3.38;2.22;;;;;;;;;;5073421;28;20222;-74
2023/09/26 02:24:13;;;;;;;3.45;2.10;;;;;;;;;;5073380;28;20193;-74
2023/09/26 02:26:40;;;;;;;3.65;2.10;;;;;;;;;;5068944;28;20182;-74
2023/09/26 02:29:08;;;;;;;3.50;2.58;;;;;;;;;;5052694;28;20193;-74
2023/09/26 02:31:37;;;;;;;3.20;2.10;;;;;;;;;;5062692;28;20210;-74
2023/09/26 02:34:06;;;;;;;3.40;2.50;;;;;;;;;;5072765;28;20725;-74
2023/09/26 02:36:34;;;;;;;2.80;1.80;;;;;;;;;;5073224;28;20710;-74
2023/09/26 02:39:01;;;;;;;2.50;1.70;;;;;;;;;;5073573;28;20193;-73
2023/09/26 02:41:28;;;;;;;2.92;1.50;;;;;;;;;;5073323;28;20221;-74
2023/09/26 02:43:58;;;;;;;2.90;1.70;;;;;;;;;;5073214;28;20345;-74
2023/09/26 02:46:25;;;;;;;7.53;2.00;;;;;;;;;;5073452;28;20194;-74
2023/09/26 02:48:52;;;;;;;3.60;2.17;;;;;;;;;;5073396;28;20197;-74
2023/09/26 02:51:21;;;;;;;3.13;1.98;;;;;;;;;;5073392;28;20263;-74
2023/09/26 02:53:48;;;;;;;3.42;1.80;;;;;;;;;;5077084;28;20242;-74
2023/09/26 02:56:16;;;;;;;3.20;2.10;;;;;;;;;;5071095;28;20235;-74
2023/09/26 02:58:43;;;;;;;3.38;2.10;;;;;;;;;;5056934;28;20197;-74
2023/09/26 03:01:16;;;;;;;4.57;2.03;;;;;;;;;;5057306;28;20198;-74
2023/09/26 03:03:43;;;;;;;4.20;2.30;;;;;;;;;;5057413;28;20182;-74
2023/09/26 03:06:10;;;;;;;4.00;1.98;;;;;;;;;;5057096;28;20242;-74
2023/09/26 03:08:39;;;;;;;4.85;2.60;;;;;;;;;;5057180;28;20186;-74
2023/09/26 03:11:06;;;;;;;4.15;2.70;;;;;;;;;;5056905;28;20225;-74
2023/09/26 03:13:34;;;;;;;4.90;2.72;;;;;;;;;;5057106;28;20194;-74
2023/09/26 03:16:02;;;;;;;4.10;2.20;;;;;;;;;;5057049;28;20255;-74
2023/09/26 03:18:29;;;;;;;4.20;3.03;;;;;;;;;;5056705;28;20371;-74
2023/09/26 03:20:57;;;;;;;3.95;2.50;;;;;;;;;;5056547;28;20263;-74
2023/09/26 03:23:25;;;;;;;3.65;1.98;;;;;;;;;;5056595;28;20192;-74
2023/09/26 03:25:54;;;;;;;3.75;2.08;;;;;;;;;;5056826;28;20247;-74
2023/09/26 03:28:26;;;;;;;3.83;2.00;;;;;;;;;;5056865;28;20267;-74
2023/09/26 03:30:54;;;;;;;6.03;2.30;;;;;;;;;;5056880;28;20270;-74
2023/09/26 03:33:21;;;;;;;3.75;2.28;;;;;;;;;;5056718;28;20192;-74
2023/09/26 03:35:52;;;;;;;3.20;2.22;;;;;;;;;;5056184;28;20194;-76
2023/09/26 03:38:21;;;;;;;4.00;2.65;;;;;;;;;;5056084;28;20174;-76
2023/09/26 03:40:48;;;;;;;3.45;2.30;;;;;;;;;;5063129;28;20196;-76
2023/09/26 03:43:17;;;;;;;3.00;2.30;;;;;;;;;;5076264;28;20192;-76
2023/09/26 03:45:44;;;;;;;4.50;2.40;;;;;;;;;;5076188;28;20196;-76
2023/09/26 03:48:13;;;;;;;4.07;2.70;;;;;;;;;;5076158;28;20243;-76
2023/09/26 03:50:42;;;;;;;3.55;2.25;;;;;;;;;;5076204;28;20204;-76
2023/09/26 03:53:09;;;;;;;3.92;2.95;;;;;;;;;;5075676;28;20196;-76
2023/09/26 03:55:38;;;;;;;3.80;2.75;;;;;;;;;;5075906;28;20688;-76
2023/09/26 03:58:06;;;;;;;4.78;3.30;;;;;;;;;;5076216;28;20266;-76
2023/09/26 04:00:35;;;;;;;13.02;10.30;;;;;;;;;;5076160;28;20250;-76
2023/09/26 04:03:03;;;;;;;5.90;5.40;;;;;;;;;;5075351;28;20189;-77
2023/09/26 04:05:30;;;;;;;3.15;2.42;;;;;;;;;;5075468;28;20200;-76
2023/09/26 04:07:58;;;;;;;2.80;2.00;;;;;;;;;;5075727;28;20188;-76
2023/09/26 04:10:25;;;;;;;3.88;2.38;;;;;;;;;;5076029;28;20279;-76
2023/09/26 04:12:53;;;;;;;5.07;2.70;;;;;;;;;;5075465;28;20271;-76
2023/09/26 04:15:21;;;;;;;3.30;2.05;;;;;;;;;;5076002;28;20199;-76
2023/09/26 04:17:50;;;;;;;2.97;1.70;;;;;;;;;;5075326;28;20196;-76
2023/09/26 04:20:19;;;;;;;3.28;1.60;;;;;;;;;;5075833;28;20570;-76
2023/09/26 04:22:47;;;;;;;3.40;3.00;;;;;;;;;;5075459;28;20660;-76
2023/09/26 04:25:20;;;;;;;4.28;3.00;;;;;;;;;;5072663;28;20227;-76
2023/09/26 04:27:47;;;;;;;9.60;8.70;;;;;;;;;;5055796;28;20931;-76
2023/09/26 04:30:14;;;;;;;10.10;9.20;;;;;;;;;;5056035;28;20286;-76
2023/09/26 04:32:44;;;;;;;6.90;3.58;;;;;;;;;;5055102;28;20307;-76
2023/09/26 04:35:13;;;;;;;3.80;2.50;;;;;;;;;;5055329;28;20212;-76
2023/09/26 04:37:43;;;;;;;3.80;2.42;;;;;;;;;;5055177;28;20713;-76
2023/09/26 04:40:10;;;;;;;4.43;2.55;;;;;;;;;;5055558;28;20197;-76
2023/09/26 04:42:39;;;;;;;4.82;2.85;;;;;;;;;;5055447;28;20207;-76
2023/09/26 04:45:08;;;;;;;3.75;2.05;;;;;;;;;;5055018;28;20196;-76
2023/09/26 04:47:35;;;;;;;3.50;2.35;;;;;;;;;;5055181;28;20252;-76
2023/09/26 04:50:02;;;;;;;4.00;2.50;;;;;;;;;;5061868;28;20278;-76
2023/09/26 04:52:46;;;;;;;4.20;3.60;;;;;;;;;;5071357;28;20555;-76
2023/09/26 04:55:14;;;;;;;7.90;3.08;;;;;;;;;;5074321;28;20192;-76
2023/09/26 04:57:45;;;;;;;3.30;2.40;;;;;;;;;;5074352;28;20284;-76
2023/09/26 05:00:17;;;;;;;3.60;2.60;;;;;;;;;;5074751;28;20175;-76
2023/09/26 05:02:44;;;;;;;3.50;2.50;;;;;;;;;;5056428;28;20177;-76
2023/09/26 05:05:15;;;;;;;3.08;2.15;;;;;;;;;;5054400;28;20620;-76
2023/09/26 05:07:45;;;;;;;3.60;2.00;;;;;;;;;;5054438;28;20181;-76
2023/09/26 05:10:15;;;;;;;3.45;2.50;;;;;;;;;;5054365;28;20228;-75
2023/09/26 05:12:45;;;;;;;3.00;2.30;;;;;;;;;;5053300;28;20216;-76
2023/09/26 05:15:13;;;;;;;4.65;3.33;;;;;;;;;;5053579;28;20193;-76
2023/09/26 05:17:42;;;;;;;3.13;2.10;;;;;;;;;;5053296;28;20192;-76
2023/09/26 05:20:12;;;;;;;17.92;16.20;;;;;;;;;;5033882;28;20258;-76
2023/09/26 05:22:46;;;;;;;16.08;14.32;;;;;;;;;;5033806;28;20561;-76
2023/09/26 05:25:14;;;;;;;9.25;8.35;;;;;;;;;;5033375;28;20189;-76
2023/09/26 05:27:43;;;;;;;6.80;5.65;;;;;;;;;;5033564;28;20627;-76
2023/09/26 05:30:11;;;;;;;8.25;7.05;;;;;;;;;;5044882;28;20733;-76
2023/09/26 05:32:43;;;;;;;7.55;4.50;;;;;;;;;;5052265;28;20220;-76
2023/09/26 05:35:11;;;;;;;5.47;3.75;;;;;;;;;;5053135;28;20219;-76
2023/09/26 05:37:39;;;;;;;7.63;3.53;;;;;;;;;;5052950;28;20602;-76
2023/09/26 05:40:09;;;;;;;7.47;4.00;;;;;;;;;;5053097;28;20570;-76
2023/09/26 05:42:42;;;;;;;5.05;3.22;;;;;;;;;;5053525;28;20627;-76
2023/09/26 05:45:11;;;;;;;4.13;2.78;;;;;;;;;;5052410;28;20236;-76
2023/09/26 05:47:43;;;;;;;3.55;2.50;;;;;;;;;;5053333;28;20177;-76
2023/09/26 05:50:14;;;;;;;3.30;2.03;;;;;;;;;;5037984;28;20273;-76
2023/09/26 05:52:42;;;;;;;3.60;2.45;;;;;;;;;;5032806;28;20632;-76
2023/09/26 05:55:10;;;;;;;6.32;2.45;;;;;;;;;;5033103;28;20625;-76
2023/09/26 05:57:38;;;;;;;4.35;2.15;;;;;;;;;;5033171;28;20267;-76
2023/09/26 06:00:12;;;;;;;4.65;2.40;;;;;;;;;;5033266;28;20693;-76
2023/09/26 06:02:47;;;;;;;4.18;2.20;;;;;;;;;;5032925;28;20191;-77
2023/09/26 06:05:15;;;;;;;3.63;2.08;;;;;;;;;;5032282;28;20554;-76
2023/09/26 06:07:42;;;;;;;5.35;2.80;;;;;;;;;;5033198;28;20202;-76
2023/09/26 06:10:12;;;;;;;3.40;2.53;;;;;;;;;;5033964;28;20187;-76
2023/09/26 06:12:39;;;;;;;3.47;2.63;;;;;;;;;;5032689;28;20604;-76
2023/09/26 06:15:07;;;;;;;3.80;2.72;;;;;;;;;;5033084;28;20628;-76
2023/09/26 06:17:34;;;;;;;5.13;2.65;;;;;;;;;;5032521;28;20253;-76
2023/09/26 06:20:02;;;;;;;5.20;2.50;;;;;;;;;;5052024;28;20221;-76
2023/09/26 06:22:29;;;;;;;3.80;2.65;;;;;;;;;;5049052;28;20190;-76
2023/09/26 06:24:58;;;;;;;3.90;2.20;;;;;;;;;;5051895;28;20199;-76
2023/09/26 06:27:27;;;;;;;5.40;1.90;;;;;;;;;;5052290;28;20225;-76
2023/09/26 06:29:54;;;;;;;3.15;2.38;;;;;;;;;;5051623;28;20193;-76
2023/09/26 06:32:23;;;;;;;3.55;2.38;;;;;;;;;;5052126;28;20213;-76
2023/09/26 06:34:50;;;;;;;4.43;3.30;;;;;;;;;;5066586;28;20182;-76
2023/09/26 06:37:17;;;;;;;6.38;2.55;;;;;;;;;;5064098;28;20182;-76
2023/09/26 06:39:45;;;;;;;3.70;2.45;;;;;;;;;;5071770;28;20201;-76
2023/09/26 06:42:14;;;;;;;3.80;2.30;;;;;;;;;;5052373;28;20739;-76
2023/09/26 06:44:47;;;;;;;3.45;2.17;;;;;;;;;;5051482;28;20302;-76
2023/09/26 06:47:14;;;;;;;3.40;1.98;;;;;;;;;;5052139;28;20237;-76
2023/09/26 06:49:41;;;;;;;2.90;1.90;;;;;;;;;;5051791;28;20230;-76
2023/09/26 06:52:09;;;;;;;3.60;2.08;;;;;;;;;;5052181;28;20199;-76
2023/09/26 06:54:37;;;;;;;2.57;1.80;;;;;;;;;;5049876;28;20179;-74
2023/09/26 06:57:04;;;;;;;4.13;2.10;;;;;;;;;;5051113;28;20449;-74
2023/09/26 06:59:32;;;;;;;3.47;2.30;;;;;;;;;;5052427;28;20434;-74
2023/09/26 07:02:01;;;;;;;7.27;2.00;;;;;;;;;;5052605;28;20447;-74
2023/09/26 07:04:29;;;;;;;3.20;1.97;;;;;;;;;;5052701;28;20780;-74
2023/09/26 07:06:56;;;;;;;4.93;2.50;;;;;;;;;;5052878;28;20517;-74
2023/09/26 07:09:23;;;;;;;3.37;1.90;;;;;;;;;;5052855;28;20430;-74
2023/09/26 07:11:52;;;;;;;2.97;2.13;;;;;;;;;;5052675;28;20441;-74
2023/09/26 07:14:20;;;;;;;5.30;1.90;;;;;;;;;;5053237;28;20437;-74
2023/09/26 07:16:47;;;;;;;3.30;2.13;;;;;;;;;;5052130;28;20923;-74
2023/09/26 07:19:16;;;;;;;3.40;1.90;;;;;;;;;;5052797;28;20538;-75
2023/09/26 07:21:43;;;;;;;4.57;1.63;;;;;;;;;;5052406;28;20985;-74
2023/09/26 07:24:17;;;;;;;3.20;1.67;;;;;;;;;;5051580;28;20437;-74
2023/09/26 07:26:44;;;;;;;3.43;2.03;;;;;;;;;;5052872;28;20827;-74
2023/09/26 07:29:11;;;;;;;3.57;2.00;;;;;;;;;;5052424;28;20433;-74
2023/09/26 07:31:39;;;;;;;4.03;1.67;;;;;;;;;;5051956;28;20441;-74
2023/09/26 07:34:06;;;;;;;4.83;2.13;;;;;;;;;;5052636;28;20835;-75
2023/09/26 07:36:35;;;;;;;5.83;2.43;;;;;;;;;;5052300;28;20430;-75
2023/09/26 07:39:03;;;;;;;9.93;2.47;;;;;;;;;;5053888;28;20437;-75
2023/09/26 07:41:31;;;;;;;7.30;2.40;;;;;;;;;;5055925;28;20521;-74
2023/09/26 07:43:58;;;;;;;4.90;2.50;;;;;;;;;;5056237;28;20423;-75
2023/09/26 07:46:26;;;;;;;4.73;1.60;;;;;;;;;;5056140;28;20440;-75
2023/09/26 07:48:54;;;;;;;2.83;1.80;;;;;;;;;;5056207;28;20440;-75
2023/09/26 07:51:21;;;;;;;3.13;1.40;;;;;;;;;;5055779;28;20467;-75
2023/09/26 07:53:50;;;;;;;2.93;1.33;;;;;;;;;;5055634;28;20476;-75
2023/09/26 07:56:18;;;;;;;3.80;1.70;;;;;;;;;;5056081;28;20441;-75
2023/09/26 07:58:47;;;;;;;2.93;1.63;;;;;;;;;;5055979;28;20441;-75
2023/09/26 08:01:14;;;;;;;5.13;1.77;;;;;;;;;;5055893;28;20433;-75
2023/09/26 08:03:43;;;;;;;3.80;1.97;;;;;;;;;;5055784;28;20469;-75
2023/09/26 08:06:13;;;;;;;7.03;2.37;;;;;;;;;;5055771;28;20799;-75
2023/09/26 08:08:40;;;;;;;6.10;2.10;;;;;;;;;;5055512;28;20444;-75
2023/09/26 08:11:10;;;;;;;3.40;2.43;;;;;;;;;;5055434;28;20450;-75
2023/09/26 08:13:39;;;;;;;3.13;1.90;;;;;;;;;;5055690;28;20433;-75
2023/09/26 08:16:07;;;;;;;3.30;2.00;;;;;;;;;;5055314;28;20433;-75
2023/09/26 08:18:34;;;;;;;2.97;2.13;;;;;;;;;;5055505;28;20489;-75
2023/09/26 08:21:05;;;;;;;3.27;1.60;;;;;;;;;;5055251;28;20491;-75
2023/09/26 08:23:33;;;;;;;3.93;2.23;;;;;;;;;;5055353;28;20468;-75
2023/09/26 08:26:02;;;;;;;3.00;1.90;;;;;;;;;;5055567;28;20594;-75
2023/09/26 08:28:31;;;;;;;4.00;1.60;;;;;;;;;;5055244;28;20973;-75
2023/09/26 08:31:05;;;;;;;2.87;1.73;;;;;;;;;;5055140;28;20444;-75
2023/09/26 08:33:32;;;;;;;4.67;1.70;;;;;;;;;;5055337;28;20483;-75
2023/09/26 08:35:59;;;;;;;4.00;1.80;;;;;;;;;;5055190;28;20430;-75
2023/09/26 08:38:27;;;;;;;3.20;1.53;;;;;;;;;;5054954;28;20935;-75
2023/09/26 08:40:58;;;;;;;4.87;1.90;;;;;;;;;;5054891;28;20438;-75
2023/09/26 08:43:27;;;;;;;2.93;2.00;;;;;;;;;;5055202;28;20519;-75
2023/09/26 08:45:56;;;;;;;3.93;1.77;;;;;;;;;;5054782;28;20444;-75
2023/09/26 08:48:24;;;;;;;2.93;2.10;;;;;;;;;;5055200;28;20434;-75
2023/09/26 08:50:52;;;;;;;3.60;2.10;;;;;;;;;;5054833;28;20429;-75
2023/09/26 08:53:24;;;;;;;3.07;2.20;;;;;;;;;;5054673;28;20437;-75
2023/09/26 08:55:54;;;;;;;3.00;1.97;;;;;;;;;;5054553;28;20429;-75
2023/09/26 08:58:22;;;;;;;3.30;2.43;;;;;;;;;;5055138;28;20774;-75
2023/09/26 09:00:50;;;;;;;2.80;2.10;;;;;;;;;;5054753;28;20791;-75
2023/09/26 09:03:22;;;;;;;2.90;2.10;;;;;;;;;;5054322;28;20469;-75
2023/09/26 09:05:49;;;;;;;5.00;2.23;;;;;;;;;;5054882;28;20424;-75
2023/09/26 09:08:20;;;;;;;3.60;2.50;;;;;;;;;;5054399;28;20429;-75
2023/09/26 09:10:51;;;;;;;4.20;2.47;;;;;;;;;;5054851;28;20753;-75
2023/09/26 09:13:29;;;;;;;3.40;2.20;;;;;;;;;;5054285;28;20436;-75
2023/09/26 09:16:09;;;;;;;2.70;2.20;;;;;;;;;;5054587;28;20437;-75
2023/09/26 09:18:38;;;;;;;3.87;1.90;;;;;;;;;;5053845;28;20468;-75
2023/09/26 09:21:25;;;;;;;4.10;2.33;;;;;;;;;;5054012;28;20495;-75
2023/09/26 09:23:56;;;;;;;4.53;2.50;;;;;;;;;;5054304;28;20812;-75
2023/09/26 09:26:24;;;;;;;3.97;2.70;;;;;;;;;;5054313;28;20506;-75
2023/09/26 09:28:55;;;;;;;4.37;2.23;;;;;;;;;;5054364;28;20437;-75
2023/09/26 09:31:23;;;;;;;3.13;2.33;;;;;;;;;;5054216;28;20495;-75
2023/09/26 09:33:55;;;;;;;4.30;2.40;;;;;;;;;;5053884;28;20528;-75
2023/09/26 09:36:22;;;;;;;4.80;2.30;;;;;;;;;;5054116;28;20422;-75
2023/09/26 09:38:50;;;;;;;7.93;1.97;;;;;;;;;;5054048;28;20930;-76
2023/09/26 09:41:17;;;;;;;3.53;1.80;;;;;;;;;;5054064;28;20429;-75
2023/09/26 09:43:44;;;;;;;4.17;2.50;;;;;;;;;;5053965;28;20441;-75
2023/09/26 09:46:13;;;;;;;3.80;2.40;;;;;;;;;;5053931;28;20775;-75
2023/09/26 09:48:45;;;;;;;3.33;2.40;;;;;;;;;;5053894;28;20433;-75
2023/09/26 09:51:14;;;;;;;4.30;2.03;;;;;;;;;;5053491;28;20418;-75
2023/09/26 09:53:43;;;;;;;3.20;2.23;;;;;;;;;;5053688;28;20527;-75
2023/09/26 09:56:18;;;;;;;5.50;2.47;;;;;;;;;;5053773;28;20468;-75
2023/09/26 09:58:49;;;;;;;3.17;1.73;;;;;;;;;;5053582;28;20421;-75
2023/09/26 10:01:19;;;;;;;3.50;2.23;;;;;;;;;;5053161;28;20807;-75
2023/09/26 10:03:50;;;;;;;3.47;2.47;;;;;;;;;;5053331;28;20963;-75
2023/09/26 10:06:19;;;;;;;2.90;2.00;;;;;;;;;;5053703;28;20436;-75
2023/09/26 10:08:47;;;;;;;3.70;2.00;;;;;;;;;;5053624;28;20433;-75
2023/09/26 10:11:15;;;;;;;2.83;1.87;;;;;;;;;;5051841;28;20444;-75
2023/09/26 10:13:42;;;;;;;5.60;2.40;;;;;;;;;;5053093;28;20476;-76
2023/09/26 10:16:14;;;;;;;4.23;1.93;;;;;;;;;;5053572;28;20448;-75
2023/09/26 10:18:43;;;;;;;3.00;2.00;;;;;;;;;;5052998;28;20465;-75
2023/09/26 10:21:22;;;;;;;3.73;1.80;;;;;;;;;;5053089;28;20440;-76
2023/09/26 10:24:09;;;;;;;3.57;2.10;;;;;;;;;;5053380;28;20782;-75
2023/09/26 10:26:39;;;;;;;3.90;1.80;;;;;;;;;;5053538;28;20508;-75
2023/09/26 10:29:06;;;;;;;3.10;1.90;;;;;;;;;;5053226;28;20432;-75
2023/09/26 10:31:34;;;;;;;4.20;2.10;;;;;;;;;;5052964;28;20459;-76
2023/09/26 10:34:02;;;;;;;2.90;1.87;;;;;;;;;;5052741;28;20538;-73
2023/09/26 10:36:31;;;;;;;3.03;2.00;;;;;;;;;;5053201;28;20478;-73
2023/09/26 10:39:05;;;;;;;3.33;2.00;;;;;;;;;;5052062;28;20437;-73
2023/09/26 10:41:36;;;;;;;3.63;2.23;;;;;;;;;;5052869;28;20451;-73
2023/09/26 10:44:04;;;;;;;2.83;1.87;;;;;;;;;;5049764;28;20428;-73
2023/09/26 10:46:31;;;;;;;3.50;2.13;;;;;;;;;;5052457;28;20821;-73
2023/09/26 10:48:58;;;;;;;3.30;1.97;;;;;;;;;;5052862;28;20457;-73
2023/09/26 10:51:26;;;;;;;3.27;1.80;;;;;;;;;;5052153;28;20490;-74
2023/09/26 10:53:55;;;;;;;5.93;2.57;;;;;;;;;;5052822;28;20471;-73
2023/09/26 10:56:22;;;;;;;3.90;2.13;;;;;;;;;;5052692;28;20527;-74
2023/09/26 10:58:49;;;;;;;3.30;1.77;;;;;;;;;;5052419;28;20531;-74
2023/09/26 11:01:17;;;;;;;2.73;1.80;;;;;;;;;;5053086;28;20433;-74
2023/09/26 11:03:44;;;;;;;3.07;1.90;;;;;;;;;;5049045;28;20445;-74
2023/09/26 11:06:17;;;;;;;2.50;1.50;;;;;;;;;;5052038;28;20429;-73
2023/09/26 11:08:45;;;;;;;3.63;1.80;;;;;;;;;;5038913;28;20925;-74
2023/09/26 11:11:16;;;;;;;3.60;1.93;;;;;;;;;;5052133;28;20775;-74
2023/09/26 11:13:48;;;;;;;2.23;1.40;;;;;;;;;;5054675;28;20460;-74
2023/09/26 11:16:16;;;;;;;4.10;1.70;;;;;;;;;;5057210;28;20463;-74
2023/09/26 11:18:43;;;;;;;4.50;1.80;;;;;;;;;;5063661;28;20565;-74
2023/09/26 11:21:11;;;;;;;2.47;1.53;;;;;;;;;;5061094;28;20432;-74
2023/09/26 11:23:39;;;;;;;2.90;2.00;;;;;;;;;;5075092;28;20455;-74
2023/09/26 11:26:07;;;;;;;2.80;2.00;;;;;;;;;;5057966;28;20440;-74
2023/09/26 11:28:36;;;;;;;3.27;1.60;;;;;;;;;;5055223;28;20441;-74
2023/09/26 11:31:04;;;;;;;4.40;2.00;;;;;;;;;;5059572;28;20436;-74
2023/09/26 11:33:31;;;;;;;2.80;1.60;;;;;;;;;;5055403;28;20496;-74
2023/09/26 11:35:59;;;;;;;3.53;1.50;;;;;;;;;;5064208;28;20820;-74
2023/09/26 11:38:30;;;;;;;4.17;1.40;;;;;;;;;;5074851;28;20977;-74
2023/09/26 11:40:58;;;;;;;2.60;1.50;;;;;;;;;;5075569;28;20423;-74
2023/09/26 11:43:26;;;;;;;2.97;1.60;;;;;;;;;;5075601;28;20517;-74
2023/09/26 11:46:03;;;;;;;2.90;2.20;;;;;;;;;;5075140;28;20432;-74
2023/09/26 11:48:31;;;;;;;6.40;1.90;;;;;;;;;;5063658;28;20431;-74
2023/09/26 11:50:58;;;;;;;2.50;1.80;;;;;;;;;;5058950;28;20529;-74
2023/09/26 11:53:28;;;;;;;3.30;1.63;;;;;;;;;;5075234;28;21074;-74
2023/09/26 11:55:55;;;;;;;4.30;1.60;;;;;;;;;;5066098;28;20441;-74
2023/09/26 11:58:26;;;;;;;3.67;2.00;;;;;;;;;;5055539;28;20429;-74
2023/09/26 12:01:01;;;;;;;3.27;1.67;;;;;;;;;;5055754;28;20453;-74
2023/09/26 12:03:29;;;;;;;3.23;1.83;;;;;;;;;;5055494;28;20513;-74
2023/09/26 12:05:57;;;;;;;3.00;1.83;;;;;;;;;;5054296;28;20432;-74
2023/09/26 12:08:29;;;;;;;2.57;1.60;;;;;;;;;;5052112;28;20438;-74
2023/09/26 12:10:56;;;;;;;3.17;1.73;;;;;;;;;;5054748;28;20895;-74
2023/09/26 12:13:24;;;;;;;2.70;1.70;;;;;;;;;;5055070;28;20968;-76
2023/09/26 12:15:51;;;;;;;3.23;1.60;;;;;;;;;;5054440;28;20442;-76
2023/09/26 12:18:19;;;;;;;8.33;2.13;;;;;;;;;;5054941;28;20471;-75
2023/09/26 12:20:53;;;;;;;3.00;1.50;;;;;;;;;;5040965;28;20761;-75
2023/09/26 12:23:21;;;;;;;5.67;1.77;;;;;;;;;;5055217;28;20429;-76
2023/09/26 12:25:49;;;;;;;2.40;1.30;;;;;;;;;;5054198;28;20434;-76
2023/09/26 12:28:18;;;;;;;5.50;1.77;;;;;;;;;;5054377;28;20433;-76
2023/09/26 12:30:45;;;;;;;4.47;1.47;;;;;;;;;;5054902;28;20829;-76
2023/09/26 12:33:14;;;;;;;3.63;1.63;;;;;;;;;;5055165;28;20479;-75
2023/09/26 12:35:43;;;;;;;2.97;1.67;;;;;;;;;;5054988;28;20507;-76
2023/09/26 12:38:12;;;;;;;3.67;1.50;;;;;;;;;;5054299;28;20491;-75
2023/09/26 12:40:39;;;;;;;2.80;1.67;;;;;;;;;;5054717;28;20441;-76
2023/09/26 12:43:07;;;;;;;3.03;1.40;;;;;;;;;;5055146;28;20433;-75
2023/09/26 12:45:34;;;;;;;3.40;1.90;;;;;;;;;;5054714;28;20528;-76
2023/09/26 12:48:02;;;;;;;3.67;1.97;;;;;;;;;;5035869;28;20442;-75
2023/09/26 12:50:29;;;;;;;2.70;1.50;;;;;;;;;;5034922;28;20454;-75
2023/09/26 12:53:04;;;;;;;2.73;1.37;;;;;;;;;;5034798;28;20445;-75
2023/09/26 12:55:33;;;;;;;3.03;1.70;;;;;;;;;;5034595;28;20458;-76
2023/09/26 12:58:00;;;;;;;3.83;2.07;;;;;;;;;;5034680;28;20438;-75
2023/09/26 13:00:27;;;;;;;2.50;1.37;;;;;;;;;;5035410;28;20922;-75
2023/09/26 13:02:55;;;;;;;3.70;1.50;;;;;;;;;;5034910;28;20442;-75
2023/09/26 13:05:24;;;;;;;3.13;1.50;;;;;;;;;;5034361;28;20927;-75
2023/09/26 13:07:52;;;;;;;4.63;1.53;;;;;;;;;;5034755;28;20435;-75
2023/09/26 13:10:19;;;;;;;3.50;1.80;;;;;;;;;;5034949;28;20499;-75
2023/09/26 13:12:49;;;;;;;2.70;1.50;;;;;;;;;;5036177;28;20446;-75
2023/09/26 13:15:16;;;;;;;2.63;1.53;;;;;;;;;;5054174;28;20469;-75
2023/09/26 13:17:44;;;;;;;4.13;2.00;;;;;;;;;;5053361;28;20433;-74
2023/09/26 13:20:12;;;;;;;4.27;1.93;;;;;;;;;;5054378;28;20437;-75
2023/09/26 13:22:39;;;;;;;3.20;2.10;;;;;;;;;;5054535;28;20462;-75
2023/09/26 13:25:07;;;;;;;3.50;1.93;;;;;;;;;;5054550;28;20782;-74
2023/09/26 13:27:34;;;;;;;3.53;2.00;;;;;;;;;;5053716;28;20449;-75
2023/09/26 13:30:06;;;;;;;3.90;2.20;;;;;;;;;;5053321;28;20426;-75
2023/09/26 13:32:37;;;;;;;2.80;1.70;;;;;;;;;;5050939;28;20432;-75
2023/09/26 13:35:05;;;;;;;3.63;2.10;;;;;;;;;;5053823;28;20458;-75
2023/09/26 13:37:32;;;;;;;3.73;2.07;;;;;;;;;;5052224;28;20470;-75
2023/09/26 13:39:59;;;;;;;3.63;2.00;;;;;;;;;;5053632;28;20436;-75
2023/09/26 13:42:27;;;;;;;3.10;1.77;;;;;;;;;;5053555;28;20907;-75
2023/09/26 13:44:56;;;;;;;2.80;1.37;;;;;;;;;;5053792;28;20452;-75
2023/09/26 13:47:25;;;;;;;5.43;1.60;;;;;;;;;;5054269;28;20437;-75
2023/09/26 13:49:59;;;;;;;3.43;1.57;;;;;;;;;;5054149;28;20437;-75
2023/09/26 13:52:26;;;;;;;6.13;2.27;;;;;;;;;;5054034;28;20772;-75
2023/09/26 13:54:54;;;;;;;3.43;1.63;;;;;;;;;;5053955;28;20469;-75
2023/09/26 13:57:26;;;;;;;3.60;1.60;;;;;;;;;;5053727;28;20464;-75
2023/09/26 13:59:53;;;;;;;3.40;2.10;;;;;;;;;;5053622;28;20847;-75
2023/09/26 14:02:21;;;;;;;3.07;1.60;;;;;;;;;;5053531;28;20434;-75
2023/09/26 14:04:49;;;;;;;3.90;2.30;;;;;;;;;;5053426;28;20980;-74
2023/09/26 14:07:20;;;;;;;3.50;1.57;;;;;;;;;;5053462;28;20465;-75
2023/09/26 14:09:47;;;;;;;4.47;1.97;;;;;;;;;;5053537;28;20422;-75
2023/09/26 14:12:14;;;;;;;4.30;1.70;;;;;;;;;;5053688;28;20491;-75
2023/09/26 14:14:42;;;;;;;3.03;1.90;;;;;;;;;;5053264;28;20515;-75
2023/09/26 14:17:09;;;;;;;2.60;1.50;;;;;;;;;;5053357;28;20438;-74
2023/09/26 14:19:36;;;;;;;4.93;1.90;;;;;;;;;;5053147;28;20507;-75
2023/09/26 14:22:05;;;;;;;4.63;2.27;;;;;;;;;;5053520;28;20767;-74
2023/09/26 14:24:32;;;;;;;2.93;1.60;;;;;;;;;;5053142;28;20441;-74
2023/09/26 14:27:02;;;;;;;4.40;2.10;;;;;;;;;;5053405;28;20445;-75
2023/09/26 14:29:32;;;;;;;2.60;1.60;;;;;;;;;;5053630;28;20437;-75
2023/09/26 14:32:00;;;;;;;5.30;2.93;;;;;;;;;;5053226;28;20428;-74
2023/09/26 14:34:28;;;;;;;2.97;1.87;;;;;;;;;;5052865;28;20468;-74
2023/09/26 14:36:55;;;;;;;3.00;1.63;;;;;;;;;;5053204;28;20442;-75
2023/09/26 14:39:24;;;;;;;3.30;2.07;;;;;;;;;;5053050;28;20495;-74
2023/09/26 14:41:51;;;;;;;2.87;1.87;;;;;;;;;;5053308;28;20430;-75
2023/09/26 14:44:18;;;;;;;2.97;1.50;;;;;;;;;;5053160;28;20469;-75
2023/09/26 14:46:46;;;;;;;4.70;2.30;;;;;;;;;;5053210;28;20437;-74
2023/09/26 14:49:13;;;;;;;3.33;2.00;;;;;;;;;;5056679;28;20428;-75
2023/09/26 14:51:41;;;;;;;3.90;2.20;;;;;;;;;;5057310;28;20790;-74